»·PEaware :: ASA1810 KPDX-KSEA

ASA1810 :: KPDX-KSEA

FLIGHT INFORMATION

Flight Status: Arrived
Operator:
Alaska Airlines
More flights by this operator :: More flights under this callsign
Pilot: Kyle M. (9350)
Aircraft: BOEING 737-800
(B738)
More flights by this aircraft type
Origin: KPDX Portland Intl
United States
Destination: KSEA Seattle-Tacoma Intl
United States
More flights between these airports :: More routes between these airports
Route: +PTLD1 COUGA KRIEG HAWKZ7
File this flight plan on PilotEdge
Remarks: CptCanada - Youtube Livestreams!
Altitude:
(Current/Filed)
20,000ft
Speed:
(Current/Filed)
400kts
Departed: 17-Sep-18 11:30 AM
Arrived: 17-Sep-18 12:03 PM
Distance/Time
Traveled:
112nm/0:32
Distance/Time
To Go:
Arrived

Flight Plot

Page will automatically refresh every two minutes.

Flight plan parsing failed; only flown route is shown


Map Options




Map Legend


Flown Route
Filed Route
Departure Airport
Arrival Airport
Navaid (VOR, NDB)
Fix

Horizontal Profiles

Position Reports

Time Latitude Longitude Heading Altitude Ground
Speed
17-Sep-18 11:01 45.587528 -122.594306 52 36ft 0kts
17-Sep-18 11:02 45.587528 -122.594306 52 36ft 0kts
17-Sep-18 11:03 45.587528 -122.594306 52 36ft 0kts
17-Sep-18 11:04 45.587528 -122.594306 52 36ft 0kts
17-Sep-18 11:05 45.587528 -122.594306 52 36ft 0kts
17-Sep-18 11:06 45.587528 -122.594306 52 36ft 0kts
17-Sep-18 11:07 45.587528 -122.594306 52 36ft 0kts
17-Sep-18 11:08 45.587528 -122.594306 52 36ft 0kts
17-Sep-18 11:09 45.587528 -122.594306 52 36ft 0kts
17-Sep-18 11:10 45.587528 -122.594306 52 36ft 0kts
17-Sep-18 11:11 45.587528 -122.594306 52 36ft 0kts
17-Sep-18 11:12 45.587528 -122.594306 52 36ft 0kts
17-Sep-18 11:13 45.587528 -122.594306 52 36ft 0kts
17-Sep-18 11:14 45.587528 -122.594306 52 36ft 0kts
17-Sep-18 11:15 45.587528 -122.594306 52 36ft 0kts
17-Sep-18 11:16 45.587528 -122.594306 52 36ft 0kts
17-Sep-18 11:17 45.587528 -122.594306 52 36ft 0kts
17-Sep-18 11:18 45.587528 -122.594306 52 37ft 0kts
17-Sep-18 11:19 45.587528 -122.594306 52 36ft 0kts
17-Sep-18 11:20 45.587528 -122.594306 52 36ft 0kts
17-Sep-18 11:21 45.587528 -122.594306 52 36ft 0kts
17-Sep-18 11:22 45.587528 -122.594306 52 36ft 0kts
17-Sep-18 11:23 45.587528 -122.594306 52 36ft 0kts
17-Sep-18 11:24 45.587528 -122.594306 52 37ft 0kts
17-Sep-18 11:25 45.587159 -122.594909 48 37ft 2kts
17-Sep-18 11:26 45.587058 -122.595348 119 37ft 0kts
17-Sep-18 11:27 45.587059 -122.595350 119 37ft 0kts
17-Sep-18 11:28 45.587059 -122.595350 119 37ft 0kts
17-Sep-18 11:29 45.587039 -122.595299 118 37ft 2kts
17-Sep-18 11:30 45.584550 -122.590685 128 37ft 19kts
17-Sep-18 11:31 45.581663 -122.583780 138 37ft 21kts
17-Sep-18 11:32 45.589615 -122.607324 298 170ft 167kts
17-Sep-18 11:33 45.613386 -122.669047 298 2575ft 195kts
17-Sep-18 11:34 45.642840 -122.747617 297 4312ft 259kts
17-Sep-18 11:35 45.685694 -122.820732 355 7523ft 274kts
17-Sep-18 11:36 45.760772 -122.798229 14 10402ft 295kts
17-Sep-18 11:37 45.844090 -122.768015 14 13085ft 319kts
17-Sep-18 11:38 45.916634 -122.741590 14 15493ft 331kts
17-Sep-18 11:39 46.022570 -122.702871 14 18628ft 347kts
17-Sep-18 11:40 46.118384 -122.680276 355 20205ft 370kts
17-Sep-18 11:41 46.200253 -122.698371 353 20191ft 396kts
17-Sep-18 11:42 46.326075 -122.722927 356 20180ft 395kts
17-Sep-18 11:43 46.417135 -122.725946 359 20187ft 394kts
17-Sep-18 11:44 46.525645 -122.729720 359 20209ft 394kts
17-Sep-18 11:45 46.652926 -122.727635 4 20206ft 394kts
17-Sep-18 11:46 46.742925 -122.718529 4 19418ft 386kts
17-Sep-18 11:47 46.848108 -122.707183 5 16619ft 375kts
17-Sep-18 11:48 46.949516 -122.695782 5 15824ft 370kts
17-Sep-18 11:49 47.041815 -122.658213 24 14413ft 359kts
17-Sep-18 11:50 47.122977 -122.603034 24 12179ft 347kts
17-Sep-18 11:51 47.201720 -122.548958 24 10875ft 289kts
17-Sep-18 11:52 47.271398 -122.500755 24 9994ft 277kts
17-Sep-18 11:53 47.341515 -122.465213 5 9332ft 274kts
17-Sep-18 11:54 47.415922 -122.455747 4 8030ft 267kts
17-Sep-18 11:55 47.488678 -122.446281 4 7021ft 264kts
17-Sep-18 11:56 47.561241 -122.436456 4 5899ft 260kts
17-Sep-18 11:57 47.632356 -122.426775 4 4835ft 256kts
17-Sep-18 11:58 47.699898 -122.411745 31 4124ft 242kts
17-Sep-18 11:59 47.711063 -122.327247 126 3984ft 241kts
17-Sep-18 12:00 47.655682 -122.294474 188 3823ft 210kts
17-Sep-18 12:01 47.599983 -122.305744 192 3072ft 194kts
17-Sep-18 12:02 47.551872 -122.310998 175 1952ft 158kts
17-Sep-18 12:03 47.508300 -122.310800 177 1316ft 156kts
17-Sep-18 12:04 47.465642 -122.310984 179 521ft 154kts
17-Sep-18 12:05 47.446776 -122.309491 150 441ft 10kts
17-Sep-18 12:06 47.445017 -122.306312 179 441ft 17kts
17-Sep-18 12:07 47.442927 -122.303675 131 441ft 0kts

Navigation Log

Ident Type
Flight plan parsing failed, navigation log unavailable